Terminal Aerodrome Forecast
Issued by NWS

Home | Current Version | Previous Version | Text Only | Print | Product List | Glossary On
Versions: 1 2 3 4 5 6 7 8 9 10 11 12 13 14 15 16 17 18 19 20 21 22 23 24 25 26 27 28 29 30 31 32 33 34 35 36
730
FTAK31 PAFG 182333
TAFABT
TAF
PABT 182333Z 1900/1924 02009KT P6SM VCSH SCT040 BKN060
     FM190400 35004KT 5SM -SN BR SCT015 OVC040
     FM191200 01003KT 3SM -SN BR SCT010 OVC025=

USA.gov is the U.S. government's official web portal to all federal, state and local government web resources and services.